Okeene, Oklahoma
Current Conditions -  °F | °C
As of 10:55 AM on Wednesday 22 Oct 2014 (Local Time) from KJWG Reporting Station
Clear Clear  
Wind Chill: 68°   Ceiling: Unl
Heat Index: 68°   Visibility: 10mi
Dew Point: 59°   Wind: 7mph
Humidity: 74%   Direction: 170°S
Pressure: 30.15"   Gusts: NA
Location:  36.12°N, 98.32°W
Report Text: KJWG 221555Z AUTO 17006KT 10SM CLR 20/15 A3015 RMK AO2 T01990151
Loading
Personal Weather Stations






























Interactive Weather Map
Tropical Storm Tracking
New forecast layout! Learn more

10-Day Weather Forecast

Advertisements
Track Severe Weather on mobile